Othello — LXOD — position and weather

sailwx.info

Track history (hours):
 
Tides and Currents Weather Stations Pressure Air Temp Water Temp Dewpoint Dewpoint Depression Visibility Wind Speed Wind Dir Waves Ship Positions

Othello

Last reported at 2017-Jan-22 16:19 UTC. Time now 2017-Jan-22 18:12 UTC.
Position N 51°17' E 004°20'.

Length 104 m; draft 7.5 m.

Type: Tanker. MMSI: 253279000.

Date/timePositionNaut miles runAvg speedWind from/ knotsBaromVisibWave heightAir tempDewpointWater temp
2017-Jan-22 16:19N 51°17' E 004°20'0 0.0
2017-Jan-22 14:28N 51°17' E 004°20'0 0.0
2017-Jan-22 12:16N 51°17' E 004°20'0 0.0
2017-Jan-22 09:22N 51°17' E 004°20'0 0.0
2017-Jan-22 08:19N 51°17' E 004°20'0 0.0
2017-Jan-22 07:28N 51°17' E 004°20'0 0.0
2017-Jan-22 06:04N 51°17' E 004°20'0 0.0
2017-Jan-22 05:25N 51°17' E 004°20'0 0.0
2017-Jan-22 02:16N 51°17' E 004°20'0 0.0
2017-Jan-22 00:04N 51°17' E 004°20'0 0.0
2017-Jan-21 22:16N 51°17' E 004°20'0 0.0
2017-Jan-21 20:28N 51°17' E 004°20'0 0.0
2017-Jan-21 16:19N 51°17' E 004°20'0 0.0
2017-Jan-21 13:07N 51°17' E 004°20'0 0.0
2017-Jan-21 12:31N 51°17' E 004°20'3 3.6
2017-Jan-21 11:33N 51°20' E 004°18'1 1.1
2017-Jan-21 10:33N 51°21' E 004°17'6 6.2
2017-Jan-21 09:33N 51°22' E 004°07'7 7.1
2017-Jan-21 08:33N 51°22' E 003°56'1010.0
2017-Jan-21 07:33N 51°26' E 003°41'1110.6
2017-Jan-21 06:33N 51°31' E 003°26'1212.1
2017-Jan-21 05:33N 51°42' E 003°17'5 5.1
2017-Jan-21 04:30N 51°47' E 003°20'0 0.0
2017-Jan-21 03:33N 51°47' E 003°20'0 0.0
2017-Jan-21 02:33N 51°47' E 003°20'0 0.0
2017-Jan-21 01:33N 51°47' E 003°20'0 0.1
2017-Jan-21 00:33N 51°47' E 003°20'9 8.8
2017-Jan-20 23:33N 51°46' E 003°05'1211.1
2017-Jan-20 22:26N 51°50' E 002°46'1011.4
2017-Jan-20 21:33N 51°57' E 002°34'1211.1
2017-Jan-20 20:26N 52°08' E 002°26'1011.3
2017-Jan-20 19:32N 52°17' E 002°19'1211.5
2017-Jan-20 18:29N 52°28' E 002°12'1112.0
2017-Jan-20 17:33N 52°39' E 002°05'1212.1
2017-Jan-20 16:33N 52°48' E 001°53'1312.9
2017-Jan-20 15:33N 52°56' E 001°35'1313.2
2017-Jan-20 14:33N 53°06' E 001°21'1413.5
2017-Jan-20 13:32N 53°18' E 001°10'1413.1
2017-Jan-20 12:30N 53°27' E 000°53'2211.1
2017-Jan-20 10:31N 53°35' E 000°19'9 8.9
2017-Jan-20 09:33N 53°34' E 000°05'1010.1
2017-Jan-20 08:33N 53°38' W 000°11'6 5.8
2017-Jan-20 07:33N 53°44' W 000°15'0 0.0
2017-Jan-20 06:31N 53°44' W 000°15'0 0.0
2017-Jan-20 05:31N 53°44' W 000°15'0 0.0
2017-Jan-20 04:31N 53°44' W 000°15'0 0.0
2017-Jan-20 03:31N 53°44' W 000°15'0 0.0
2017-Jan-20 02:31N 53°44' W 000°15'0 0.0
2017-Jan-20 01:31N 53°44' W 000°15'0 0.0
2017-Jan-20 00:31N 53°44' W 000°15'0 0.0
2017-Jan-19 23:28N 53°44' W 000°15'0 0.0
2017-Jan-19 22:31N 53°44' W 000°15'0 0.0
2017-Jan-19 21:28N 53°44' W 000°15'0 0.0
2017-Jan-19 20:31N 53°44' W 000°15'0 0.0
2017-Jan-19 19:31N 53°44' W 000°15'0 0.0
2017-Jan-19 18:31N 53°44' W 000°15'0 0.0
2017-Jan-19 17:31N 53°44' W 000°15'0 0.0
2017-Jan-19 16:31N 53°44' W 000°15'0 0.0
2017-Jan-19 15:31N 53°44' W 000°15'0 0.0
2017-Jan-19 14:31N 53°44' W 000°15'0 0.0
2017-Jan-19 13:31N 53°44' W 000°15'0 0.0
2017-Jan-19 12:31N 53°44' W 000°15'1 1.5
2017-Jan-19 11:33N 53°42' W 000°14'7 6.8
2017-Jan-19 10:33N 53°37' W 000°06'1212.4
2017-Jan-19 09:33N 53°33' E 000°13'1211.6
2017-Jan-19 08:32N 53°28' E 000°31'2713.3
2017-Jan-19 06:30N 53°16' E 001°12'1414.6
2017-Jan-19 05:33N 53°04' E 001°23'1515.1
2017-Jan-19 04:33N 52°54' E 001°41'1613.7
2017-Jan-19 03:22N 52°43' E 002°02'1612.6
2017-Jan-19 02:04N 52°28' E 002°12'811.8
2017-Jan-19 01:24N 52°21' E 002°17'2611.9
2017-Jan-18 23:14N 51°58' E 002°36'2011.8
2017-Jan-18 21:33N 51°45' E 003°01'1211.6
2017-Jan-18 20:31N 51°41' E 003°19'1313.6
2017-Jan-18 19:33N 51°29' E 003°29'9 9.1
2017-Jan-18 18:33N 51°25' E 003°42'9 9.0
2017-Jan-18 17:33N 51°23' E 003°56'6 5.8
2017-Jan-18 16:33N 51°22' E 004°06'7 7.3
2017-Jan-18 15:33N 51°21' E 004°17'0 0.1
2017-Jan-18 14:34N 51°21' E 004°17'2 2.0
2017-Jan-18 13:33N 51°19' E 004°19'2 2.4
2017-Jan-18 12:33N 51°17' E 004°20'0 0.0
2017-Jan-18 11:21N 51°17' E 004°20'0 0.0
2017-Jan-18 10:33N 51°17' E 004°20'0 0.0
2017-Jan-18 09:33N 51°17' E 004°20'0 0.0
2017-Jan-18 08:33N 51°17' E 004°20'0 0.0
2017-Jan-18 07:33N 51°17' E 004°20'0 0.0
2017-Jan-18 06:27N 51°17' E 004°20'0 0.0
2017-Jan-18 05:33N 51°17' E 004°20'0 0.0
2017-Jan-18 04:24N 51°17' E 004°20'0 0.0
2017-Jan-18 03:33N 51°17' E 004°20'0 0.0
2017-Jan-18 02:33N 51°17' E 004°20'0 0.0
2017-Jan-18 01:33N 51°17' E 004°20'0 0.0
2017-Jan-18 00:27N 51°17' E 004°20'0 0.0
2017-Jan-17 23:30N 51°17' E 004°20'0 0.0
2017-Jan-17 21:27N 51°17' E 004°20'0 0.0
2017-Jan-17 20:33N 51°17' E 004°20'0 0.0
2017-Jan-17 17:33N 51°17' E 004°20'0 0.0
2017-Jan-17 16:21N 51°17' E 004°20'0 0.0
2017-Jan-17 13:30N 51°17' E 004°20'0 0.0
2017-Jan-17 12:27N 51°17' E 004°20'0 0.0
2017-Jan-17 11:29N 51°17' E 004°20'3 3.4
2017-Jan-17 10:33N 51°20' E 004°18'1 1.4
2017-Jan-17 09:33N 51°21' E 004°17'3 2.6
2017-Jan-17 08:33N 51°22' E 004°13'3 2.8
2017-Jan-17 07:33N 51°23' E 004°09'6 5.5
2017-Jan-17 06:33N 51°25' E 004°02'8 8.5
2017-Jan-17 05:33N 51°21' E 003°50'1110.8
2017-Jan-17 04:33N 51°26' E 003°35'9 8.6
2017-Jan-17 03:33N 51°32' E 003°25'1212.0
2017-Jan-17 02:33N 51°43' E 003°17'1311.6
2017-Jan-17 01:27N 51°47' E 002°58'6712.8
2017-Jan-16 20:13N 52°44' E 002°00'913.0
2017-Jan-16 19:33N 52°49' E 001°49'1212.1
2017-Jan-16 18:33N 52°56' E 001°33'1111.2
2017-Jan-16 17:33N 53°05' E 001°21'1110.7
2017-Jan-16 16:33N 53°15' E 001°13'39 9.5
2017-Jan-16 12:26N 53°33' E 000°15'1213.2
2017-Jan-16 11:33N 53°36' W 000°04'10 9.9
2017-Jan-16 10:34N 53°44' W 000°15'0 0.0
2017-Jan-16 09:33N 53°44' W 000°15'0 0.0
2017-Jan-16 08:33N 53°44' W 000°15'0 0.0
2017-Jan-16 07:33N 53°44' W 000°15'0 0.0
2017-Jan-16 06:33N 53°44' W 000°15'0 0.0
2017-Jan-16 05:33N 53°44' W 000°15'0 0.0
2017-Jan-16 04:33N 53°44' W 000°15'0 0.0
2017-Jan-16 03:33N 53°44' W 000°15'0 0.0
2017-Jan-16 02:33N 53°44' W 000°15'0 0.0
2017-Jan-16 01:33N 53°44' W 000°15'0 0.0
2017-Jan-16 00:33N 53°44' W 000°15'0 0.0
2017-Jan-15 23:33N 53°44' W 000°15'0 0.0
2017-Jan-15 22:33N 53°44' W 000°15'0 0.0
2017-Jan-15 21:33N 53°44' W 000°15'0 0.0
2017-Jan-15 20:33N 53°44' W 000°15'0 0.0
2017-Jan-15 19:33N 53°44' W 000°15'2 2.1
2017-Jan-15 18:33N 53°42' W 000°14'1313.3
2017-Jan-15 17:33N 53°35' E 000°05'2 1.6
2017-Jan-15 16:31N 53°33' E 000°04'0 0.0
2017-Jan-15 15:31N 53°33' E 000°04'0 0.0
2017-Jan-15 14:31N 53°33' E 000°04'0 0.1
2017-Jan-15 13:31N 53°33' E 000°04'0 0.0
2017-Jan-15 12:31N 53°33' E 000°04'0 0.0
2017-Jan-15 11:31N 53°33' E 000°04'0 0.0
2017-Jan-15 10:31N 53°33' E 000°04'4 4.2
2017-Jan-15 09:34N 53°33' E 000°11'4511.1
2017-Jan-15 05:32N 53°11' E 001°17'1212.2
2017-Jan-15 04:33N 53°01' E 001°26'1514.8
2017-Jan-15 03:33N 52°51' E 001°46'8910.8
2017-Jan-14 19:23N 51°41' E 003°13'4 5.0
2017-Jan-14 18:29N 51°39' E 003°20'1212.8
2017-Jan-14 17:33N 51°29' E 003°30'1211.5
2017-Jan-14 16:33N 51°22' E 003°44'1110.6
2017-Jan-14 15:33N 51°26' E 004°00'7 7.3
2017-Jan-14 14:33N 51°24' E 004°12'6 2.1
2017-Jan-14 11:34N 51°19' E 004°19'5 4.6
2017-Jan-14 10:32N 51°15' E 004°23'0 0.0
2017-Jan-14 09:32N 51°15' E 004°23'0 0.0
2017-Jan-14 08:32N 51°15' E 004°23'0 0.0
2017-Jan-14 07:32N 51°15' E 004°23'0 0.0
2017-Jan-14 06:32N 51°15' E 004°23'0 0.0
2017-Jan-14 05:29N 51°15' E 004°23'0 0.0
2017-Jan-14 04:32N 51°15' E 004°23'0 0.0
2017-Jan-14 03:32N 51°15' E 004°23'0 0.0
2017-Jan-13 23:32N 51°15' E 004°23'0 0.0
2017-Jan-13 22:32N 51°15' E 004°23'0 0.0
2017-Jan-13 21:32N 51°15' E 004°23'0 0.0
2017-Jan-13 20:32N 51°15' E 004°23'0 0.0
2017-Jan-13 19:32N 51°15' E 004°23'0 0.0
2017-Jan-13 18:32N 51°15' E 004°23'0 0.0
2017-Jan-13 17:32N 51°15' E 004°23'0 0.0
2017-Jan-13 16:32N 51°15' E 004°23'0 0.0
2017-Jan-13 15:32N 51°15' E 004°23'0 0.0
2017-Jan-13 14:32N 51°15' E 004°23'0 0.0
2017-Jan-13 13:32N 51°15' E 004°23'0 0.0
2017-Jan-13 12:32N 51°15' E 004°23'0 0.0
2017-Jan-13 11:32N 51°15' E 004°23'0 0.0
2017-Jan-13 10:32N 51°15' E 004°23'0 0.0
2017-Jan-13 09:23N 51°15' E 004°23'0 0.0
2017-Jan-13 08:32N 51°15' E 004°23'0 0.0
2017-Jan-13 07:32N 51°15' E 004°23'0 0.0
2017-Jan-13 06:32N 51°15' E 004°23'0 0.0
2017-Jan-13 05:32N 51°15' E 004°23'0 0.0
2017-Jan-13 04:32N 51°15' E 004°23'0 0.0
2017-Jan-13 03:32N 51°15' E 004°23'0 0.0
2017-Jan-13 02:29N 51°15' E 004°23'0 0.0
2017-Jan-13 01:32N 51°15' E 004°23'0 0.0
2017-Jan-13 00:32N 51°15' E 004°23'0 0.0
2017-Jan-12 23:32N 51°15' E 004°23'0 0.0
2017-Jan-12 22:32N 51°15' E 004°23'0 0.0
2017-Jan-12 21:29N 51°15' E 004°23'0 0.0
2017-Jan-12 20:23N 51°15' E 004°23'2 2.1
2017-Jan-12 19:33N 51°16' E 004°20'0 0.4
2017-Jan-12 18:17N 51°17' E 004°20'0 0.0
2017-Jan-12 17:32N 51°17' E 004°20'0 0.0
2017-Jan-12 16:32N 51°17' E 004°20'  
Track history (hours):
 
Tides and Currents Weather Stations Pressure Air Temp Water Temp Dewpoint Dewpoint Depression Visibility Wind Speed Wind Dir Waves Ship Positions

Othello

Last reported at 2017-Jan-22 16:19 UTC. Time now 2017-Jan-22 18:12 UTC.
Position N 51°17' E 004°20'.

Length 104 m; draft 7.5 m.

Type: Tanker. MMSI: 253279000.

Date/timePositionNaut miles runAvg speedWind from/ knotsBaromVisibWave heightAir tempDewpointWater temp
2017-Jan-22 16:19N 51°17' E 004°20'0 0.0
2017-Jan-22 14:28N 51°17' E 004°20'0 0.0
2017-Jan-22 12:16N 51°17' E 004°20'0 0.0
2017-Jan-22 09:22N 51°17' E 004°20'0 0.0
2017-Jan-22 08:19N 51°17' E 004°20'0 0.0
2017-Jan-22 07:28N 51°17' E 004°20'0 0.0
2017-Jan-22 06:04N 51°17' E 004°20'0 0.0
2017-Jan-22 05:25N 51°17' E 004°20'0 0.0
2017-Jan-22 02:16N 51°17' E 004°20'0 0.0
2017-Jan-22 00:04N 51°17' E 004°20'0 0.0
2017-Jan-21 22:16N 51°17' E 004°20'0 0.0
2017-Jan-21 20:28N 51°17' E 004°20'0 0.0
2017-Jan-21 16:19N 51°17' E 004°20'0 0.0
2017-Jan-21 13:07N 51°17' E 004°20'0 0.0
2017-Jan-21 12:31N 51°17' E 004°20'3 3.6
2017-Jan-21 11:33N 51°20' E 004°18'1 1.1
2017-Jan-21 10:33N 51°21' E 004°17'6 6.2
2017-Jan-21 09:33N 51°22' E 004°07'7 7.1
2017-Jan-21 08:33N 51°22' E 003°56'1010.0
2017-Jan-21 07:33N 51°26' E 003°41'1110.6
2017-Jan-21 06:33N 51°31' E 003°26'1212.1
2017-Jan-21 05:33N 51°42' E 003°17'5 5.1
2017-Jan-21 04:30N 51°47' E 003°20'0 0.0
2017-Jan-21 03:33N 51°47' E 003°20'0 0.0
2017-Jan-21 02:33N 51°47' E 003°20'0 0.0
2017-Jan-21 01:33N 51°47' E 003°20'0 0.1
2017-Jan-21 00:33N 51°47' E 003°20'9 8.8
2017-Jan-20 23:33N 51°46' E 003°05'1211.1
2017-Jan-20 22:26N 51°50' E 002°46'1011.4
2017-Jan-20 21:33N 51°57' E 002°34'1211.1
2017-Jan-20 20:26N 52°08' E 002°26'1011.3
2017-Jan-20 19:32N 52°17' E 002°19'1211.5
2017-Jan-20 18:29N 52°28' E 002°12'1112.0
2017-Jan-20 17:33N 52°39' E 002°05'1212.1
2017-Jan-20 16:33N 52°48' E 001°53'1312.9
2017-Jan-20 15:33N 52°56' E 001°35'1313.2
2017-Jan-20 14:33N 53°06' E 001°21'1413.5
2017-Jan-20 13:32N 53°18' E 001°10'1413.1
2017-Jan-20 12:30N 53°27' E 000°53'2211.1
2017-Jan-20 10:31N 53°35' E 000°19'9 8.9
2017-Jan-20 09:33N 53°34' E 000°05'1010.1
2017-Jan-20 08:33N 53°38' W 000°11'6 5.8
2017-Jan-20 07:33N 53°44' W 000°15'0 0.0
2017-Jan-20 06:31N 53°44' W 000°15'0 0.0
2017-Jan-20 05:31N 53°44' W 000°15'0 0.0
2017-Jan-20 04:31N 53°44' W 000°15'0 0.0
2017-Jan-20 03:31N 53°44' W 000°15'0 0.0
2017-Jan-20 02:31N 53°44' W 000°15'0 0.0
2017-Jan-20 01:31N 53°44' W 000°15'0 0.0
2017-Jan-20 00:31N 53°44' W 000°15'0 0.0
2017-Jan-19 23:28N 53°44' W 000°15'0 0.0
2017-Jan-19 22:31N 53°44' W 000°15'0 0.0
2017-Jan-19 21:28N 53°44' W 000°15'0 0.0
2017-Jan-19 20:31N 53°44' W 000°15'0 0.0
2017-Jan-19 19:31N 53°44' W 000°15'0 0.0
2017-Jan-19 18:31N 53°44' W 000°15'0 0.0
2017-Jan-19 17:31N 53°44' W 000°15'0 0.0
2017-Jan-19 16:31N 53°44' W 000°15'0 0.0
2017-Jan-19 15:31N 53°44' W 000°15'0 0.0
2017-Jan-19 14:31N 53°44' W 000°15'0 0.0
2017-Jan-19 13:31N 53°44' W 000°15'0 0.0
2017-Jan-19 12:31N 53°44' W 000°15'1 1.5
2017-Jan-19 11:33N 53°42' W 000°14'7 6.8
2017-Jan-19 10:33N 53°37' W 000°06'1212.4
2017-Jan-19 09:33N 53°33' E 000°13'1211.6
2017-Jan-19 08:32N 53°28' E 000°31'2713.3
2017-Jan-19 06:30N 53°16' E 001°12'1414.6
2017-Jan-19 05:33N 53°04' E 001°23'1515.1
2017-Jan-19 04:33N 52°54' E 001°41'1613.7
2017-Jan-19 03:22N 52°43' E 002°02'1612.6
2017-Jan-19 02:04N 52°28' E 002°12'811.8
2017-Jan-19 01:24N 52°21' E 002°17'2611.9
2017-Jan-18 23:14N 51°58' E 002°36'2011.8
2017-Jan-18 21:33N 51°45' E 003°01'1211.6
2017-Jan-18 20:31N 51°41' E 003°19'1313.6
2017-Jan-18 19:33N 51°29' E 003°29'9 9.1
2017-Jan-18 18:33N 51°25' E 003°42'9 9.0
2017-Jan-18 17:33N 51°23' E 003°56'6 5.8
2017-Jan-18 16:33N 51°22' E 004°06'7 7.3
2017-Jan-18 15:33N 51°21' E 004°17'0 0.1
2017-Jan-18 14:34N 51°21' E 004°17'2 2.0
2017-Jan-18 13:33N 51°19' E 004°19'2 2.4
2017-Jan-18 12:33N 51°17' E 004°20'0 0.0
2017-Jan-18 11:21N 51°17' E 004°20'0 0.0
2017-Jan-18 10:33N 51°17' E 004°20'0 0.0
2017-Jan-18 09:33N 51°17' E 004°20'0 0.0
2017-Jan-18 08:33N 51°17' E 004°20'0 0.0
2017-Jan-18 07:33N 51°17' E 004°20'0 0.0
2017-Jan-18 06:27N 51°17' E 004°20'0 0.0
2017-Jan-18 05:33N 51°17' E 004°20'0 0.0
2017-Jan-18 04:24N 51°17' E 004°20'0 0.0
2017-Jan-18 03:33N 51°17' E 004°20'0 0.0
2017-Jan-18 02:33N 51°17' E 004°20'0 0.0
2017-Jan-18 01:33N 51°17' E 004°20'0 0.0
2017-Jan-18 00:27N 51°17' E 004°20'0 0.0
2017-Jan-17 23:30N 51°17' E 004°20'0 0.0
2017-Jan-17 21:27N 51°17' E 004°20'0 0.0
2017-Jan-17 20:33N 51°17' E 004°20'0 0.0
2017-Jan-17 17:33N 51°17' E 004°20'0 0.0
2017-Jan-17 16:21N 51°17' E 004°20'0 0.0
2017-Jan-17 13:30N 51°17' E 004°20'0 0.0
2017-Jan-17 12:27N 51°17' E 004°20'0 0.0
2017-Jan-17 11:29N 51°17' E 004°20'3 3.4
2017-Jan-17 10:33N 51°20' E 004°18'1 1.4
2017-Jan-17 09:33N 51°21' E 004°17'3 2.6
2017-Jan-17 08:33N 51°22' E 004°13'3 2.8
2017-Jan-17 07:33N 51°23' E 004°09'6 5.5
2017-Jan-17 06:33N 51°25' E 004°02'8 8.5
2017-Jan-17 05:33N 51°21' E 003°50'1110.8
2017-Jan-17 04:33N 51°26' E 003°35'9 8.6
2017-Jan-17 03:33N 51°32' E 003°25'1212.0
2017-Jan-17 02:33N 51°43' E 003°17'1311.6
2017-Jan-17 01:27N 51°47' E 002°58'6712.8
2017-Jan-16 20:13N 52°44' E 002°00'913.0
2017-Jan-16 19:33N 52°49' E 001°49'1212.1
2017-Jan-16 18:33N 52°56' E 001°33'1111.2
2017-Jan-16 17:33N 53°05' E 001°21'1110.7
2017-Jan-16 16:33N 53°15' E 001°13'39 9.5
2017-Jan-16 12:26N 53°33' E 000°15'1213.2
2017-Jan-16 11:33N 53°36' W 000°04'10 9.9
2017-Jan-16 10:34N 53°44' W 000°15'0 0.0
2017-Jan-16 09:33N 53°44' W 000°15'0 0.0
2017-Jan-16 08:33N 53°44' W 000°15'0 0.0
2017-Jan-16 07:33N 53°44' W 000°15'0 0.0
2017-Jan-16 06:33N 53°44' W 000°15'0 0.0
2017-Jan-16 05:33N 53°44' W 000°15'0 0.0
2017-Jan-16 04:33N 53°44' W 000°15'0 0.0
2017-Jan-16 03:33N 53°44' W 000°15'0 0.0
2017-Jan-16 02:33N 53°44' W 000°15'0 0.0
2017-Jan-16 01:33N 53°44' W 000°15'0 0.0
2017-Jan-16 00:33N 53°44' W 000°15'0 0.0
2017-Jan-15 23:33N 53°44' W 000°15'0 0.0
2017-Jan-15 22:33N 53°44' W 000°15'0 0.0
2017-Jan-15 21:33N 53°44' W 000°15'0 0.0
2017-Jan-15 20:33N 53°44' W 000°15'0 0.0
2017-Jan-15 19:33N 53°44' W 000°15'2 2.1
2017-Jan-15 18:33N 53°42' W 000°14'1313.3
2017-Jan-15 17:33N 53°35' E 000°05'2 1.6
2017-Jan-15 16:31N 53°33' E 000°04'0 0.0
2017-Jan-15 15:31N 53°33' E 000°04'0 0.0
2017-Jan-15 14:31N 53°33' E 000°04'0 0.1
2017-Jan-15 13:31N 53°33' E 000°04'0 0.0
2017-Jan-15 12:31N 53°33' E 000°04'0 0.0
2017-Jan-15 11:31N 53°33' E 000°04'0 0.0
2017-Jan-15 10:31N 53°33' E 000°04'4 4.2
2017-Jan-15 09:34N 53°33' E 000°11'4511.1
2017-Jan-15 05:32N 53°11' E 001°17'1212.2
2017-Jan-15 04:33N 53°01' E 001°26'1514.8
2017-Jan-15 03:33N 52°51' E 001°46'8910.8
2017-Jan-14 19:23N 51°41' E 003°13'4 5.0
2017-Jan-14 18:29N 51°39' E 003°20'1212.8
2017-Jan-14 17:33N 51°29' E 003°30'1211.5
2017-Jan-14 16:33N 51°22' E 003°44'1110.6
2017-Jan-14 15:33N 51°26' E 004°00'7 7.3
2017-Jan-14 14:33N 51°24' E 004°12'6 2.1
2017-Jan-14 11:34N 51°19' E 004°19'5 4.6
2017-Jan-14 10:32N 51°15' E 004°23'0 0.0
2017-Jan-14 09:32N 51°15' E 004°23'0 0.0
2017-Jan-14 08:32N 51°15' E 004°23'0 0.0
2017-Jan-14 07:32N 51°15' E 004°23'0 0.0
2017-Jan-14 06:32N 51°15' E 004°23'0 0.0
2017-Jan-14 05:29N 51°15' E 004°23'0 0.0
2017-Jan-14 04:32N 51°15' E 004°23'0 0.0
2017-Jan-14 03:32N 51°15' E 004°23'0 0.0
2017-Jan-13 23:32N 51°15' E 004°23'0 0.0
2017-Jan-13 22:32N 51°15' E 004°23'0 0.0
2017-Jan-13 21:32N 51°15' E 004°23'0 0.0
2017-Jan-13 20:32N 51°15' E 004°23'0 0.0
2017-Jan-13 19:32N 51°15' E 004°23'0 0.0
2017-Jan-13 18:32N 51°15' E 004°23'0 0.0
2017-Jan-13 17:32N 51°15' E 004°23'0 0.0
2017-Jan-13 16:32N 51°15' E 004°23'0 0.0
2017-Jan-13 15:32N 51°15' E 004°23'0 0.0
2017-Jan-13 14:32N 51°15' E 004°23'0 0.0
2017-Jan-13 13:32N 51°15' E 004°23'0 0.0
2017-Jan-13 12:32N 51°15' E 004°23'0 0.0
2017-Jan-13 11:32N 51°15' E 004°23'0 0.0
2017-Jan-13 10:32N 51°15' E 004°23'0 0.0
2017-Jan-13 09:23N 51°15' E 004°23'0 0.0
2017-Jan-13 08:32N 51°15' E 004°23'0 0.0
2017-Jan-13 07:32N 51°15' E 004°23'0 0.0
2017-Jan-13 06:32N 51°15' E 004°23'0 0.0
2017-Jan-13 05:32N 51°15' E 004°23'0 0.0
2017-Jan-13 04:32N 51°15' E 004°23'0 0.0
2017-Jan-13 03:32N 51°15' E 004°23'0 0.0
2017-Jan-13 02:29N 51°15' E 004°23'0 0.0
2017-Jan-13 01:32N 51°15' E 004°23'0 0.0
2017-Jan-13 00:32N 51°15' E 004°23'0 0.0
2017-Jan-12 23:32N 51°15' E 004°23'0 0.0
2017-Jan-12 22:32N 51°15' E 004°23'0 0.0
2017-Jan-12 21:29N 51°15' E 004°23'0 0.0
2017-Jan-12 20:23N 51°15' E 004°23'2 2.1
2017-Jan-12 19:33N 51°16' E 004°20'0 0.4
2017-Jan-12 18:17N 51°17' E 004°20'0 0.0
2017-Jan-12 17:32N 51°17' E 004°20'0 0.0
2017-Jan-12 16:32N 51°17' E 004°20'  

Dump ship's entire track history